createdAt,value
2017-10-25T00:01:36.943Z,7.30
2017-10-25T00:04:04.304Z,7.40
2017-10-25T00:06:30.687Z,7.40
2017-10-25T00:08:57.110Z,7.40
2017-10-25T00:11:24.325Z,7.50
2017-10-25T00:13:50.684Z,7.50
2017-10-25T00:16:17.802Z,7.70
2017-10-25T00:18:44.239Z,7.70
2017-10-25T00:21:10.591Z,7.70
2017-10-25T00:23:37.923Z,7.70
2017-10-25T00:26:04.259Z,7.70
2017-10-25T00:28:30.706Z,7.70
2017-10-25T00:30:57.078Z,7.70
2017-10-25T00:33:23.421Z,7.70
2017-10-25T00:35:51.332Z,7.80
2017-10-25T00:38:18.537Z,7.80
2017-10-25T00:40:44.840Z,7.80
2017-10-25T00:43:11.883Z,7.80
2017-10-25T00:45:39.963Z,7.80
2017-10-25T00:48:06.250Z,7.80
2017-10-25T00:50:32.550Z,7.90
2017-10-25T00:53:00.975Z,7.90
2017-10-25T00:55:27.295Z,8.00
2017-10-25T00:57:53.585Z,8.10
2017-10-25T01:00:19.916Z,8.10
2017-10-25T01:02:47.214Z,8.20
2017-10-25T01:05:13.505Z,8.20
2017-10-25T01:07:39.801Z,8.20
2017-10-25T01:10:06.094Z,8.20
2017-10-25T01:12:32.384Z,8.30
2017-10-25T01:14:58.686Z,8.40
2017-10-25T01:17:24.993Z,8.40
2017-10-25T01:19:51.318Z,8.40
2017-10-25T01:22:17.675Z,8.30
2017-10-25T01:24:44.724Z,8.10
2017-10-25T01:27:11.038Z,8.30
2017-10-25T01:29:39.111Z,8.30
2017-10-25T01:32:06.226Z,8.40
2017-10-25T01:34:32.527Z,8.30
2017-10-25T01:36:59.591Z,8.30
2017-10-25T01:39:25.933Z,8.30
2017-10-25T01:41:52.258Z,8.30
2017-10-25T01:44:18.575Z,8.30
2017-10-25T01:46:44.879Z,8.20
2017-10-25T01:49:11.205Z,8.20
2017-10-25T01:51:37.583Z,8.20
2017-10-25T01:54:03.904Z,8.20
2017-10-25T01:56:30.239Z,8.20
2017-10-25T01:58:56.543Z,8.20
2017-10-25T02:01:22.860Z,8.20
2017-10-25T02:03:49.165Z,8.40
2017-10-25T02:06:16.200Z,8.50
2017-10-25T02:08:42.496Z,8.50
2017-10-25T02:11:08.864Z,8.70
2017-10-25T02:13:35.901Z,8.90
2017-10-25T02:16:02.234Z,8.80
2017-10-25T02:18:28.558Z,8.90
2017-10-25T02:20:54.859Z,9.00
2017-10-25T02:23:21.160Z,9.00
2017-10-25T02:25:47.519Z,9.10
2017-10-25T02:28:13.812Z,9.10
2017-10-25T02:30:40.830Z,9.30
2017-10-25T02:33:07.156Z,9.20
2017-10-25T02:35:33.503Z,9.40
2017-10-25T02:37:59.845Z,9.30
2017-10-25T02:40:26.869Z,9.30
2017-10-25T02:42:53.177Z,9.30
2017-10-25T02:45:19.455Z,9.30
2017-10-25T02:47:45.751Z,9.40
2017-10-25T02:50:12.023Z,9.40
2017-10-25T02:52:38.333Z,9.40
2017-10-25T02:55:05.347Z,9.50
2017-10-25T02:57:32.018Z,9.50
2017-10-25T02:59:59.365Z,9.50
2017-10-25T03:02:27.378Z,9.50
2017-10-25T03:04:53.682Z,9.50
2017-10-25T03:07:19.955Z,9.50
2017-10-25T03:09:46.235Z,9.50
2017-10-25T03:12:12.546Z,9.50
2017-10-25T03:14:39.598Z,9.40
2017-10-25T03:17:06.634Z,9.40
2017-10-25T03:19:32.958Z,9.40
2017-10-25T03:22:00.279Z,9.30
2017-10-25T03:24:26.581Z,9.30
2017-10-25T03:26:53.965Z,9.20
2017-10-25T03:29:20.262Z,9.20
2017-10-25T03:31:46.551Z,9.20
2017-10-25T03:34:12.854Z,9.20
2017-10-25T03:36:39.149Z,9.30
2017-10-25T03:39:05.448Z,9.20
2017-10-25T03:41:31.766Z,9.20
2017-10-25T03:43:58.070Z,9.20
2017-10-25T03:46:24.419Z,9.40
2017-10-25T03:48:50.724Z,9.40
2017-10-25T03:51:16.994Z,9.50
2017-10-25T03:53:43.286Z,9.60
2017-10-25T03:56:09.594Z,9.60
2017-10-25T03:58:35.882Z,9.70
2017-10-25T04:01:02.169Z,9.70
2017-10-25T04:03:28.504Z,9.70
2017-10-25T04:05:54.786Z,9.70
2017-10-25T04:08:21.826Z,9.70
2017-10-25T04:10:48.852Z,9.70
2017-10-25T04:13:15.231Z,9.70
2017-10-25T04:15:41.519Z,9.70
2017-10-25T04:18:07.827Z,9.70
2017-10-25T04:20:34.103Z,9.70
2017-10-25T04:23:01.119Z,9.70
2017-10-25T04:25:27.421Z,9.60
2017-10-25T04:27:53.695Z,9.70
2017-10-25T04:30:20.732Z,9.70
2017-10-25T04:32:47.037Z,9.60
2017-10-25T04:35:13.327Z,9.70
2017-10-25T04:37:39.617Z,9.70
2017-10-25T04:40:05.934Z,9.70
2017-10-25T04:42:32.211Z,9.70
2017-10-25T04:44:58.539Z,9.70
2017-10-25T04:47:24.830Z,9.60
2017-10-25T04:49:51.101Z,9.50
2017-10-25T04:52:17.391Z,9.50
2017-10-25T04:54:43.694Z,9.40
2017-10-25T04:57:09.985Z,9.40
2017-10-25T04:59:36.251Z,9.40
2017-10-25T05:02:02.559Z,9.40
2017-10-25T05:04:28.839Z,9.10
2017-10-25T05:06:55.140Z,9.10
2017-10-25T05:09:21.438Z,9.10
2017-10-25T05:11:47.752Z,9.10
2017-10-25T05:14:14.812Z,8.90
2017-10-25T05:16:41.084Z,8.90
2017-10-25T05:19:07.387Z,8.90
2017-10-25T05:21:33.654Z,9.00
2017-10-25T05:23:59.925Z,8.90
2017-10-25T05:26:26.256Z,8.90
2017-10-25T05:28:52.563Z,8.90
2017-10-25T05:31:20.626Z,8.80
2017-10-25T05:33:47.967Z,8.80
2017-10-25T05:36:14.262Z,8.80
2017-10-25T05:38:40.564Z,8.80
2017-10-25T05:41:07.894Z,8.80
2017-10-25T05:43:34.199Z,8.80
2017-10-25T05:46:00.510Z,8.80
2017-10-25T05:48:26.858Z,8.70
2017-10-25T05:50:53.165Z,8.70
2017-10-25T05:53:22.303Z,8.70
2017-10-25T05:55:48.595Z,8.60
2017-10-25T05:58:14.870Z,8.50
2017-10-25T06:00:45.819Z,8.50
2017-10-25T06:03:13.426Z,8.60
2017-10-25T06:05:51.945Z,8.60
2017-10-25T06:08:18.842Z,8.60
2017-10-25T06:10:45.874Z,8.70
2017-10-25T06:13:12.923Z,8.80
2017-10-25T06:15:39.964Z,8.80
2017-10-25T06:18:06.255Z,8.80
2017-10-25T06:20:32.546Z,8.90
2017-10-25T06:22:59.621Z,9.00
2017-10-25T06:25:25.936Z,9.00
2017-10-25T06:27:52.258Z,9.00
2017-10-25T06:30:18.551Z,9.00
2017-10-25T06:32:44.866Z,9.00
2017-10-25T06:35:11.157Z,9.10
2017-10-25T06:37:37.453Z,9.20
2017-10-25T06:40:04.494Z,9.40
2017-10-25T06:42:30.823Z,9.30
2017-10-25T06:44:57.111Z,9.40
2017-10-25T06:47:24.412Z,9.50
2017-10-25T06:49:51.478Z,9.50
2017-10-25T06:52:17.792Z,9.50
2017-10-25T06:54:44.819Z,9.60
2017-10-25T06:57:11.134Z,9.60
2017-10-25T06:59:37.413Z,9.70
2017-10-25T07:02:03.693Z,9.80
2017-10-25T07:04:30.006Z,9.90
2017-10-25T07:06:56.291Z,10.10
2017-10-25T07:09:23.326Z,10.30
2017-10-25T07:11:51.387Z,10.40
2017-10-25T07:14:17.670Z,10.40
2017-10-25T07:16:44.692Z,10.80
2017-10-25T07:19:10.985Z,10.80
2017-10-25T07:21:37.258Z,10.90
2017-10-25T07:24:03.555Z,11.00
2017-10-25T07:26:30.570Z,11.20
2017-10-25T07:28:58.007Z,11.20
2017-10-25T07:31:24.302Z,11.30
2017-10-25T07:33:51.337Z,11.50
2017-10-25T07:36:18.366Z,11.60
2017-10-25T07:38:44.667Z,11.50
2017-10-25T07:41:10.980Z,11.70
2017-10-25T07:43:37.294Z,11.70
2017-10-25T07:46:03.566Z,11.70
2017-10-25T07:48:29.858Z,11.80
2017-10-25T07:50:57.928Z,12.10
2017-10-25T07:53:27.084Z,12.10
2017-10-25T07:55:53.403Z,12.30
2017-10-25T07:58:20.759Z,12.40
2017-10-25T08:00:47.030Z,12.40
2017-10-25T08:03:14.060Z,12.60
2017-10-25T08:05:41.089Z,12.70
2017-10-25T08:08:07.371Z,12.70
2017-10-25T08:10:33.656Z,12.80
2017-10-25T08:12:59.950Z,12.60
2017-10-25T08:15:26.253Z,12.80
2017-10-25T08:17:52.523Z,12.90
2017-10-25T08:20:18.830Z,12.70
2017-10-25T08:22:45.107Z,12.70
2017-10-25T08:25:11.374Z,13.00
2017-10-25T08:27:37.770Z,13.20
2017-10-25T08:30:04.050Z,13.30
2017-10-25T08:32:30.326Z,13.40
2017-10-25T08:34:57.378Z,13.60
2017-10-25T08:37:25.429Z,13.80
2017-10-25T08:39:51.715Z,13.80
2017-10-25T08:42:18.070Z,14.00
2017-10-25T08:44:45.422Z,14.00
2017-10-25T08:47:11.735Z,14.20
2017-10-25T08:49:38.086Z,14.50
2017-10-25T08:52:04.366Z,14.50
2017-10-25T08:54:30.668Z,14.70
2017-10-25T08:56:57.762Z,15.10
2017-10-25T08:59:24.070Z,15.10
2017-10-25T09:01:51.332Z,15.80
2017-10-25T09:04:17.664Z,15.80
2017-10-25T09:06:43.967Z,16.00
2017-10-25T09:09:11.047Z,16.00
2017-10-25T09:11:37.373Z,16.00
2017-10-25T09:14:03.670Z,16.00
2017-10-25T09:16:29.973Z,16.00
2017-10-25T09:18:56.308Z,16.00
2017-10-25T09:21:23.470Z,16.00
2017-10-25T09:23:49.779Z,16.10
2017-10-25T09:26:16.046Z,16.10
2017-10-25T09:28:43.108Z,16.60
2017-10-25T09:31:09.391Z,16.60
2017-10-25T09:33:35.678Z,16.90
2017-10-25T09:36:03.038Z,17.10
2017-10-25T09:38:30.342Z,17.30
2017-10-25T09:40:56.647Z,17.60
2017-10-25T09:43:22.959Z,17.70
2017-10-25T09:45:49.253Z,17.90
2017-10-25T09:48:16.282Z,17.90
2017-10-25T09:50:42.598Z,17.90
2017-10-25T09:53:08.883Z,18.00
2017-10-25T09:55:35.162Z,18.00
2017-10-25T09:58:02.463Z,18.30
2017-10-25T10:00:28.760Z,18.50
2017-10-25T10:02:55.799Z,18.60
2017-10-25T10:05:22.122Z,18.60
2017-10-25T10:07:48.416Z,18.60
2017-10-25T10:10:14.691Z,18.50
2017-10-25T10:12:40.998Z,18.80
2017-10-25T10:15:07.283Z,18.90
2017-10-25T10:17:33.609Z,19.00
2017-10-25T10:19:59.898Z,18.80
2017-10-25T10:22:26.219Z,18.70
2017-10-25T10:24:52.885Z,18.70
2017-10-25T10:27:20.016Z,18.70
2017-10-25T10:29:46.299Z,18.70
2017-10-25T10:32:12.672Z,18.60
2017-10-25T10:34:39.085Z,18.60
2017-10-25T10:37:05.399Z,18.70
2017-10-25T10:39:31.702Z,19.10
2017-10-25T10:41:58.092Z,19.40
2017-10-25T10:44:24.436Z,19.40
2017-10-25T10:46:50.743Z,19.50
2017-10-25T10:49:17.067Z,19.50
2017-10-25T10:51:43.443Z,19.30
2017-10-25T10:54:10.504Z,19.50
2017-10-25T10:56:36.879Z,19.20
2017-10-25T10:59:03.207Z,19.70
2017-10-25T11:01:29.522Z,19.70
2017-10-25T11:03:55.892Z,19.90
2017-10-25T11:06:22.239Z,20.10
2017-10-25T11:08:48.682Z,20.30
2017-10-25T11:11:15.043Z,20.50
2017-10-25T11:13:41.404Z,20.90
2017-10-25T11:16:07.783Z,21.10
2017-10-25T11:18:34.209Z,21.00
2017-10-25T11:21:01.277Z,21.60
2017-10-25T11:23:27.628Z,21.60
2017-10-25T11:25:53.948Z,21.80
2017-10-25T11:28:21.316Z,21.70
2017-10-25T11:30:47.713Z,21.50
2017-10-25T11:33:14.113Z,21.30
2017-10-25T11:35:41.259Z,20.60
2017-10-25T11:38:07.599Z,20.60
2017-10-25T11:40:34.811Z,20.90
2017-10-25T11:43:01.676Z,20.80
2017-10-25T11:45:28.270Z,20.90
2017-10-25T11:47:54.892Z,21.10
2017-10-25T11:50:21.300Z,21.50
2017-10-25T11:52:48.404Z,21.70
2017-10-25T11:55:14.764Z,21.70
2017-10-25T11:57:41.075Z,22.20
2017-10-25T12:00:09.089Z,22.10
2017-10-25T12:02:35.417Z,22.00
2017-10-25T12:05:01.702Z,21.60
2017-10-25T12:07:27.987Z,21.50
2017-10-25T12:09:54.266Z,21.30
2017-10-25T12:12:21.566Z,21.20
2017-10-25T12:14:47.830Z,21.00
2017-10-25T12:17:14.219Z,21.20
2017-10-25T12:19:41.227Z,21.30
2017-10-25T12:22:07.518Z,21.20
2017-10-25T12:24:33.803Z,20.90
2017-10-25T12:27:00.824Z,20.80
2017-10-25T12:29:28.156Z,20.80
2017-10-25T12:31:54.422Z,20.90
2017-10-25T12:34:20.708Z,20.90
2017-10-25T12:36:47.350Z,20.80
2017-10-25T12:39:14.404Z,20.80
2017-10-25T12:41:40.670Z,20.80
2017-10-25T12:44:06.972Z,21.20
2017-10-25T12:46:33.230Z,21.50
2017-10-25T12:48:59.494Z,21.70
2017-10-25T12:51:25.782Z,21.70
2017-10-25T12:53:52.050Z,21.90
2017-10-25T12:56:18.346Z,21.50
2017-10-25T12:58:44.610Z,21.30
2017-10-25T13:01:10.926Z,21.20
2017-10-25T13:03:38.020Z,21.90
2017-10-25T13:06:04.315Z,21.80
2017-10-25T13:08:30.591Z,22.80
2017-10-25T13:11:01.328Z,23.20
2017-10-25T13:13:39.654Z,23.40
2017-10-25T13:16:17.931Z,23.80
2017-10-25T13:18:44.259Z,24.10
2017-10-25T13:21:10.555Z,24.10
2017-10-25T13:23:36.821Z,24.00
2017-10-25T13:26:03.180Z,23.60
2017-10-25T13:28:29.474Z,23.60
2017-10-25T13:30:55.746Z,23.70
2017-10-25T13:33:22.768Z,23.80
2017-10-25T13:35:49.070Z,23.80
2017-10-25T13:38:15.494Z,23.80
2017-10-25T13:40:41.786Z,24.10
2017-10-25T13:43:08.830Z,24.60
2017-10-25T13:45:35.091Z,24.50
2017-10-25T13:48:01.376Z,25.20
2017-10-25T13:50:27.667Z,25.40
2017-10-25T13:52:53.940Z,25.10
2017-10-25T13:55:21.978Z,24.90
2017-10-25T13:57:48.284Z,24.90
2017-10-25T14:00:14.575Z,25.00
2017-10-25T14:02:41.720Z,24.90
2017-10-25T14:05:08.057Z,24.90
2017-10-25T14:07:36.114Z,25.10
2017-10-25T14:10:03.426Z,25.10
2017-10-25T14:12:29.734Z,25.00
2017-10-25T14:14:56.046Z,25.30
2017-10-25T14:17:23.052Z,25.60
2017-10-25T14:19:49.367Z,25.60
2017-10-25T14:22:15.640Z,25.70
2017-10-25T14:24:41.959Z,25.50
2017-10-25T14:27:20.546Z,25.30
2017-10-25T14:29:46.831Z,25.50
2017-10-25T14:32:13.927Z,25.90
2017-10-25T14:34:40.250Z,25.90
2017-10-25T14:37:06.554Z,25.50
2017-10-25T14:39:33.852Z,25.80
2017-10-25T14:42:00.187Z,25.90
2017-10-25T14:44:26.508Z,26.40
2017-10-25T14:46:52.872Z,26.40
2017-10-25T14:49:20.028Z,26.40
2017-10-25T14:51:47.129Z,26.50
2017-10-25T14:54:13.489Z,26.50
2017-10-25T14:56:39.862Z,26.40
2017-10-25T14:59:06.152Z,26.30
2017-10-25T15:01:32.490Z,26.20
2017-10-25T15:03:59.591Z,26.00
2017-10-25T15:06:25.913Z,26.00
2017-10-25T15:08:52.240Z,25.90
2017-10-25T15:11:18.521Z,25.90
2017-10-25T15:13:44.789Z,25.90
2017-10-25T15:16:11.087Z,25.20
2017-10-25T15:18:39.154Z,23.80
2017-10-25T15:21:06.221Z,23.10
2017-10-25T15:23:33.257Z,22.40
2017-10-25T15:26:00.302Z,22.00
2017-10-25T15:28:27.315Z,21.60
2017-10-25T15:30:53.602Z,21.50
2017-10-25T15:33:19.903Z,21.50
2017-10-25T15:35:47.017Z,21.40
2017-10-25T15:38:13.294Z,21.40
2017-10-25T15:40:40.339Z,20.70
2017-10-25T15:43:07.347Z,20.00
2017-10-25T15:45:33.647Z,20.00
2017-10-25T15:47:59.914Z,19.30
2017-10-25T15:50:26.226Z,18.60
2017-10-25T15:52:52.498Z,18.10
2017-10-25T15:55:19.542Z,17.50
2017-10-25T15:57:46.559Z,17.00
2017-10-25T16:00:12.871Z,16.90
2017-10-25T16:02:39.171Z,16.60
2017-10-25T16:05:05.450Z,16.30
2017-10-25T16:07:31.742Z,16.10
2017-10-25T16:09:58.069Z,16.00
2017-10-25T16:12:24.346Z,16.00
2017-10-25T16:14:50.619Z,16.00
2017-10-25T16:17:16.930Z,15.70
2017-10-25T16:19:43.212Z,15.60
2017-10-25T16:22:09.489Z,15.30
2017-10-25T16:24:35.801Z,15.20
2017-10-25T16:27:02.908Z,15.20
2017-10-25T16:29:29.220Z,15.20
2017-10-25T16:31:55.518Z,15.30
2017-10-25T16:34:24.161Z,15.40
2017-10-25T16:36:51.413Z,15.40
2017-10-25T16:39:17.937Z,15.50
2017-10-25T16:41:44.312Z,15.50
2017-10-25T16:44:11.396Z,15.50
2017-10-25T16:46:37.745Z,15.50
2017-10-25T16:49:05.107Z,15.60
2017-10-25T16:51:31.403Z,15.50
2017-10-25T16:53:57.767Z,15.60
2017-10-25T16:56:24.150Z,15.50
2017-10-25T16:58:50.471Z,15.60
2017-10-25T17:01:17.565Z,15.50
2017-10-25T17:03:43.898Z,15.40
2017-10-25T17:06:10.203Z,15.20
2017-10-25T17:08:37.743Z,15.00
2017-10-25T17:11:04.781Z,14.80
2017-10-25T17:13:31.806Z,14.60
2017-10-25T17:15:58.086Z,14.60
2017-10-25T17:18:24.367Z,14.60
2017-10-25T17:20:51.691Z,14.50
2017-10-25T17:23:17.964Z,14.40
2017-10-25T17:25:45.003Z,14.50
2017-10-25T17:28:11.294Z,14.40
2017-10-25T17:30:37.603Z,14.60
2017-10-25T17:33:03.911Z,14.70
2017-10-25T17:35:30.928Z,14.70
2017-10-25T17:37:57.238Z,14.70
2017-10-25T17:40:23.519Z,14.80
2017-10-25T17:42:50.518Z,14.80
2017-10-25T17:45:16.830Z,14.80
2017-10-25T17:47:43.098Z,14.60
2017-10-25T17:50:09.399Z,14.40
2017-10-25T17:52:35.692Z,14.20
2017-10-25T17:55:01.991Z,14.20
2017-10-25T17:57:28.286Z,14.10
2017-10-25T17:59:55.576Z,14.00
2017-10-25T18:02:22.611Z,13.60
2017-10-25T18:04:48.914Z,13.50
2017-10-25T18:07:15.233Z,13.50
2017-10-25T18:09:41.518Z,13.40
2017-10-25T18:12:08.569Z,13.10
2017-10-25T18:14:36.591Z,13.10
2017-10-25T18:17:02.870Z,13.00
2017-10-25T18:19:29.196Z,13.10
2017-10-25T18:21:56.250Z,13.00
2017-10-25T18:24:23.298Z,13.10
2017-10-25T18:26:50.342Z,13.00
2017-10-25T18:29:17.346Z,13.20
2017-10-25T18:31:43.648Z,13.10
2017-10-25T18:34:09.951Z,13.20
2017-10-25T18:36:37.263Z,13.20
2017-10-25T18:39:03.610Z,13.30
2017-10-25T18:41:29.902Z,13.30
2017-10-25T18:43:56.190Z,13.60
2017-10-25T18:46:23.223Z,13.20
2017-10-25T18:48:51.130Z,13.20
2017-10-25T18:51:17.514Z,13.20
2017-10-25T18:53:43.833Z,13.20
2017-10-25T18:56:10.135Z,13.30
2017-10-25T18:58:36.621Z,13.30
2017-10-25T19:01:02.979Z,13.30
2017-10-25T19:03:29.294Z,13.20
2017-10-25T19:05:55.589Z,13.20
2017-10-25T19:08:21.867Z,13.10
2017-10-25T19:10:48.207Z,13.00
2017-10-25T19:13:15.266Z,12.90
2017-10-25T19:15:41.550Z,12.90
2017-10-25T19:18:08.586Z,12.80
2017-10-25T19:20:35.614Z,12.60
2017-10-25T19:23:01.915Z,12.60
2017-10-25T19:25:28.205Z,12.60
2017-10-25T19:27:55.230Z,12.60
2017-10-25T19:30:21.498Z,12.60
2017-10-25T19:32:47.812Z,12.50
2017-10-25T19:35:16.030Z,12.50
2017-10-25T19:37:43.350Z,12.50
2017-10-25T19:40:09.615Z,12.50
2017-10-25T19:42:35.908Z,12.50
2017-10-25T19:45:02.191Z,12.50
2017-10-25T19:47:28.471Z,12.40
2017-10-25T19:49:54.765Z,12.30
2017-10-25T19:52:21.126Z,12.30
2017-10-25T19:54:47.421Z,12.30
2017-10-25T19:57:14.471Z,12.10
2017-10-25T19:59:40.749Z,12.10
2017-10-25T20:02:07.795Z,12.10
2017-10-25T20:04:34.070Z,12.10
2017-10-25T20:07:00.371Z,12.10
2017-10-25T20:09:26.659Z,12.10
2017-10-25T20:11:52.969Z,12.00
2017-10-25T20:14:19.974Z,12.00
2017-10-25T20:16:46.278Z,12.00
2017-10-25T20:19:12.575Z,12.00
2017-10-25T20:21:39.603Z,12.10
2017-10-25T20:24:05.899Z,12.10
2017-10-25T20:26:32.258Z,12.10
2017-10-25T20:28:58.554Z,12.10
2017-10-25T20:31:24.846Z,12.00
2017-10-25T20:33:51.871Z,11.90
2017-10-25T20:36:18.174Z,11.90
2017-10-25T20:38:44.539Z,11.90
2017-10-25T20:41:11.591Z,11.90
2017-10-25T20:43:38.686Z,11.80
2017-10-25T20:46:05.018Z,11.80
2017-10-25T20:48:31.328Z,11.70
2017-10-25T20:50:57.649Z,11.70
2017-10-25T20:53:24.999Z,11.70
2017-10-25T20:55:52.355Z,11.70
2017-10-25T20:58:19.487Z,11.80
2017-10-25T21:00:46.554Z,11.70
2017-10-25T21:03:12.855Z,11.70
2017-10-25T21:05:39.204Z,11.80
2017-10-25T21:08:06.280Z,11.60
2017-10-25T21:10:32.600Z,11.60
2017-10-25T21:12:58.992Z,11.60
2017-10-25T21:15:25.280Z,11.60
2017-10-25T21:17:51.590Z,11.60
2017-10-25T21:20:17.924Z,11.50
2017-10-25T21:22:44.333Z,11.60
2017-10-25T21:25:11.423Z,11.60
2017-10-25T21:27:38.604Z,11.50
2017-10-25T21:30:05.444Z,11.60
2017-10-25T21:32:32.985Z,11.50
2017-10-25T21:34:59.310Z,11.50
2017-10-25T21:37:25.668Z,11.50
2017-10-25T21:39:52.067Z,11.60
2017-10-25T21:42:18.527Z,11.60
2017-10-25T21:44:44.926Z,11.50
2017-10-25T21:47:12.174Z,11.50
2017-10-25T21:49:38.734Z,11.40
2017-10-25T21:52:05.168Z,11.40
2017-10-25T21:54:31.480Z,11.60
2017-10-25T21:56:57.776Z,11.40
2017-10-25T21:59:24.054Z,11.30
2017-10-25T22:01:50.384Z,11.40
2017-10-25T22:04:16.691Z,11.40
2017-10-25T22:06:42.984Z,11.40
2017-10-25T22:09:10.034Z,11.30
2017-10-25T22:11:36.401Z,11.30
2017-10-25T22:14:02.803Z,11.20
2017-10-25T22:16:29.194Z,11.20
2017-10-25T22:18:55.583Z,11.30
2017-10-25T22:21:21.942Z,11.20
2017-10-25T22:23:48.270Z,11.30
2017-10-25T22:26:14.605Z,11.30
2017-10-25T22:28:40.874Z,11.30
2017-10-25T22:31:08.035Z,11.30
2017-10-25T22:33:35.067Z,11.30
2017-10-25T22:36:02.087Z,11.20
2017-10-25T22:38:28.395Z,11.10
2017-10-25T22:40:54.674Z,11.10
2017-10-25T22:43:21.723Z,11.00
2017-10-25T22:45:48.760Z,11.00
2017-10-25T22:48:15.804Z,11.00
2017-10-25T22:50:42.091Z,11.00
2017-10-25T22:53:08.390Z,11.00
2017-10-25T22:55:34.695Z,11.00
2017-10-25T22:58:01.743Z,11.00
2017-10-25T23:00:30.584Z,11.00
2017-10-25T23:02:56.890Z,11.00
2017-10-25T23:05:23.143Z,11.00
2017-10-25T23:07:49.514Z,11.00
2017-10-25T23:10:16.551Z,11.10
2017-10-25T23:12:42.884Z,11.00
2017-10-25T23:15:10.307Z,11.00
2017-10-25T23:17:36.607Z,11.00
2017-10-25T23:20:02.919Z,10.90
2017-10-25T23:22:29.982Z,10.80
2017-10-25T23:24:56.287Z,10.80
2017-10-25T23:27:23.334Z,10.80
2017-10-25T23:29:51.422Z,10.80
2017-10-25T23:32:17.815Z,10.70
2017-10-25T23:34:44.136Z,10.70
2017-10-25T23:37:10.468Z,10.70
2017-10-25T23:39:36.915Z,10.60
2017-10-25T23:42:03.283Z,10.80
2017-10-25T23:44:29.659Z,10.50
2017-10-25T23:46:56.005Z,10.50
2017-10-25T23:49:22.329Z,10.50
2017-10-25T23:51:48.660Z,10.50
2017-10-25T23:54:14.967Z,10.50
2017-10-25T23:56:41.267Z,10.50
2017-10-25T23:59:07.570Z,10.50
